sensor_id;sensor_type;location;lat;lon;timestamp;temperature;humidity
9975;DHT22;5028;50.974;4.968;2022-10-03T00:01:33;10.00;99.90
9975;DHT22;5028;50.974;4.968;2022-10-03T00:04:20;9.90;99.90
9975;DHT22;5028;50.974;4.968;2022-10-03T00:07:02;9.90;99.90
9975;DHT22;5028;50.974;4.968;2022-10-03T00:09:51;9.90;99.90
9975;DHT22;5028;50.974;4.968;2022-10-03T00:12:39;9.90;99.90
9975;DHT22;5028;50.974;4.968;2022-10-03T00:15:25;9.90;99.90
9975;DHT22;5028;50.974;4.968;2022-10-03T00:18:05;9.90;99.90
9975;DHT22;5028;50.974;4.968;2022-10-03T00:21:05;9.90;99.90
9975;DHT22;5028;50.974;4.968;2022-10-03T00:23:44;9.90;99.90
9975;DHT22;5028;50.974;4.968;2022-10-03T00:26:32;9.80;99.90
9975;DHT22;5028;50.974;4.968;2022-10-03T00:32:24;9.90;99.90
9975;DHT22;5028;50.974;4.968;2022-10-03T00:35:07;9.90;99.90
9975;DHT22;5028;50.974;4.968;2022-10-03T00:38:01;9.90;99.90
9975;DHT22;5028;50.974;4.968;2022-10-03T00:40:44;9.80;99.90
9975;DHT22;5028;50.974;4.968;2022-10-03T00:47:05;9.80;99.90
9975;DHT22;5028;50.974;4.968;2022-10-03T00:50:08;9.80;99.90
9975;DHT22;5028;50.974;4.968;2022-10-03T00:53:07;9.90;99.90
9975;DHT22;5028;50.974;4.968;2022-10-03T00:55:52;9.90;99.90
9975;DHT22;5028;50.974;4.968;2022-10-03T00:58:53;9.90;99.90
9975;DHT22;5028;50.974;4.968;2022-10-03T01:01:30;9.90;99.90
9975;DHT22;5028;50.974;4.968;2022-10-03T01:04:29;9.90;99.90
9975;DHT22;5028;50.974;4.968;2022-10-03T01:07:29;9.90;99.90
9975;DHT22;5028;50.974;4.968;2022-10-03T01:10:12;9.90;99.90
9975;DHT22;5028;50.974;4.968;2022-10-03T01:13:02;9.90;99.90
9975;DHT22;5028;50.974;4.968;2022-10-03T01:15:47;9.90;99.90
9975;DHT22;5028;50.974;4.968;2022-10-03T01:18:26;9.90;99.90
9975;DHT22;5028;50.974;4.968;2022-10-03T01:21:11;9.90;99.90
9975;DHT22;5028;50.974;4.968;2022-10-03T01:24:01;9.90;99.90
9975;DHT22;5028;50.974;4.968;2022-10-03T01:26:50;9.80;99.90
9975;DHT22;5028;50.974;4.968;2022-10-03T01:29:38;9.80;99.90
9975;DHT22;5028;50.974;4.968;2022-10-03T01:32:39;9.70;99.90
9975;DHT22;5028;50.974;4.968;2022-10-03T01:35:18;9.70;99.90
9975;DHT22;5028;50.974;4.968;2022-10-03T01:38:02;9.70;99.90
9975;DHT22;5028;50.974;4.968;2022-10-03T01:40:36;9.80;99.90
9975;DHT22;5028;50.974;4.968;2022-10-03T01:43:17;9.70;99.90
9975;DHT22;5028;50.974;4.968;2022-10-03T01:46:11;9.70;99.90
9975;DHT22;5028;50.974;4.968;2022-10-03T01:48:58;9.70;99.90
9975;DHT22;5028;50.974;4.968;2022-10-03T01:51:32;9.70;99.90
9975;DHT22;5028;50.974;4.968;2022-10-03T01:54:17;9.70;99.90
9975;DHT22;5028;50.974;4.968;2022-10-03T01:56:54;9.70;99.90
9975;DHT22;5028;50.974;4.968;2022-10-03T01:59:38;9.60;99.90
9975;DHT22;5028;50.974;4.968;2022-10-03T02:02:15;9.60;99.90
9975;DHT22;5028;50.974;4.968;2022-10-03T02:05:00;9.60;99.90
9975;DHT22;5028;50.974;4.968;2022-10-03T02:07:39;9.60;99.90
9975;DHT22;5028;50.974;4.968;2022-10-03T02:10:27;9.50;99.90
9975;DHT22;5028;50.974;4.968;2022-10-03T02:13:06;9.50;99.90
9975;DHT22;5028;50.974;4.968;2022-10-03T02:15:52;9.50;99.90
9975;DHT22;5028;50.974;4.968;2022-10-03T02:18:28;9.50;99.90
9975;DHT22;5028;50.974;4.968;2022-10-03T02:21:15;9.50;99.90
9975;DHT22;5028;50.974;4.968;2022-10-03T02:23:46;9.50;99.90
9975;DHT22;5028;50.974;4.968;2022-10-03T02:26:52;9.50;99.90
9975;DHT22;5028;50.974;4.968;2022-10-03T02:33:11;9.50;99.90
9975;DHT22;5028;50.974;4.968;2022-10-03T02:42:39;9.50;99.90
9975;DHT22;5028;50.974;4.968;2022-10-03T02:45:42;9.50;99.90
9975;DHT22;5028;50.974;4.968;2022-10-03T02:48:53;9.50;99.90
9975;DHT22;5028;50.974;4.968;2022-10-03T02:51:56;9.50;99.90
9975;DHT22;5028;50.974;4.968;2022-10-03T02:54:52;9.50;99.90
9975;DHT22;5028;50.974;4.968;2022-10-03T03:01:00;9.50;99.90
9975;DHT22;5028;50.974;4.968;2022-10-03T03:03:51;9.50;99.90
9975;DHT22;5028;50.974;4.968;2022-10-03T03:06:50;9.50;99.90
9975;DHT22;5028;50.974;4.968;2022-10-03T03:09:52;9.50;99.90
9975;DHT22;5028;50.974;4.968;2022-10-03T03:12:59;9.40;99.90
9975;DHT22;5028;50.974;4.968;2022-10-03T03:16:07;9.50;99.90
9975;DHT22;5028;50.974;4.968;2022-10-03T03:18:45;9.50;99.90
9975;DHT22;5028;50.974;4.968;2022-10-03T03:21:28;9.50;99.90
9975;DHT22;5028;50.974;4.968;2022-10-03T03:27:45;9.40;99.90
9975;DHT22;5028;50.974;4.968;2022-10-03T03:30:17;9.40;99.90
9975;DHT22;5028;50.974;4.968;2022-10-03T03:33:04;9.40;99.90
9975;DHT22;5028;50.974;4.968;2022-10-03T03:35:44;9.40;99.90
9975;DHT22;5028;50.974;4.968;2022-10-03T03:38:28;9.40;99.90
9975;DHT22;5028;50.974;4.968;2022-10-03T03:41:18;9.40;99.90
9975;DHT22;5028;50.974;4.968;2022-10-03T03:44:42;9.40;99.90
9975;DHT22;5028;50.974;4.968;2022-10-03T03:50:29;9.40;99.90
9975;DHT22;5028;50.974;4.968;2022-10-03T03:53:21;9.40;99.90
9975;DHT22;5028;50.974;4.968;2022-10-03T03:56:27;9.40;99.90
9975;DHT22;5028;50.974;4.968;2022-10-03T03:59:15;9.40;99.90
9975;DHT22;5028;50.974;4.968;2022-10-03T04:05:02;9.30;99.90
9975;DHT22;5028;50.974;4.968;2022-10-03T04:08:00;9.30;99.90
9975;DHT22;5028;50.974;4.968;2022-10-03T04:10:42;9.30;99.90
9975;DHT22;5028;50.974;4.968;2022-10-03T04:13:35;9.30;99.90
9975;DHT22;5028;50.974;4.968;2022-10-03T04:16:29;9.30;99.90
9975;DHT22;5028;50.974;4.968;2022-10-03T04:19:30;9.20;99.90
9975;DHT22;5028;50.974;4.968;2022-10-03T04:22:29;9.20;99.90
9975;DHT22;5028;50.974;4.968;2022-10-03T04:25:42;9.10;99.90
9975;DHT22;5028;50.974;4.968;2022-10-03T04:28:34;9.10;99.90
9975;DHT22;5028;50.974;4.968;2022-10-03T04:31:22;9.10;99.90
9975;DHT22;5028;50.974;4.968;2022-10-03T04:34:08;9.10;99.90
9975;DHT22;5028;50.974;4.968;2022-10-03T04:37:14;9.10;99.90
9975;DHT22;5028;50.974;4.968;2022-10-03T04:40:20;9.10;99.90
9975;DHT22;5028;50.974;4.968;2022-10-03T04:42:57;9.00;99.90
9975;DHT22;5028;50.974;4.968;2022-10-03T04:45:46;9.00;99.90
9975;DHT22;5028;50.974;4.968;2022-10-03T04:48:26;9.00;99.90
9975;DHT22;5028;50.974;4.968;2022-10-03T04:51:07;9.10;99.90
9975;DHT22;5028;50.974;4.968;2022-10-03T04:53:46;9.10;99.90
9975;DHT22;5028;50.974;4.968;2022-10-03T04:56:38;9.10;99.90
9975;DHT22;5028;50.974;4.968;2022-10-03T05:02:41;9.20;99.90
9975;DHT22;5028;50.974;4.968;2022-10-03T05:08:36;9.20;99.90
9975;DHT22;5028;50.974;4.968;2022-10-03T05:11:14;9.20;99.90
9975;DHT22;5028;50.974;4.968;2022-10-03T05:14:08;9.20;99.90
9975;DHT22;5028;50.974;4.968;2022-10-03T05:16:41;9.10;99.90
9975;DHT22;5028;50.974;4.968;2022-10-03T05:19:42;9.10;99.90
9975;DHT22;5028;50.974;4.968;2022-10-03T05:22:28;9.10;99.90
9975;DHT22;5028;50.974;4.968;2022-10-03T05:25:17;9.10;99.90
9975;DHT22;5028;50.974;4.968;2022-10-03T05:27:57;9.10;99.90
9975;DHT22;5028;50.974;4.968;2022-10-03T05:30:41;9.00;99.90
9975;DHT22;5028;50.974;4.968;2022-10-03T05:33:18;9.00;99.90
9975;DHT22;5028;50.974;4.968;2022-10-03T05:36:06;9.00;99.90
9975;DHT22;5028;50.974;4.968;2022-10-03T05:38:59;9.10;99.90
9975;DHT22;5028;50.974;4.968;2022-10-03T05:41:36;9.10;99.90
9975;DHT22;5028;50.974;4.968;2022-10-03T05:44:10;9.00;99.90
9975;DHT22;5028;50.974;4.968;2022-10-03T05:46:58;9.00;99.90
9975;DHT22;5028;50.974;4.968;2022-10-03T05:49:43;9.00;99.90
9975;DHT22;5028;50.974;4.968;2022-10-03T05:52:36;9.00;99.90
9975;DHT22;5028;50.974;4.968;2022-10-03T05:55:26;9.00;99.90
9975;DHT22;5028;50.974;4.968;2022-10-03T05:58:21;9.00;99.90
9975;DHT22;5028;50.974;4.968;2022-10-03T06:01:10;9.00;99.90
9975;DHT22;5028;50.974;4.968;2022-10-03T06:04:15;9.00;99.90
9975;DHT22;5028;50.974;4.968;2022-10-03T06:07:13;9.00;99.90
9975;DHT22;5028;50.974;4.968;2022-10-03T06:13:11;9.00;99.90
9975;DHT22;5028;50.974;4.968;2022-10-03T06:16:03;9.00;99.90
9975;DHT22;5028;50.974;4.968;2022-10-03T06:19:11;9.00;99.90
9975;DHT22;5028;50.974;4.968;2022-10-03T06:22:21;9.00;99.90
9975;DHT22;5028;50.974;4.968;2022-10-03T06:31:46;9.10;99.90
9975;DHT22;5028;50.974;4.968;2022-10-03T06:34:50;9.10;99.90
9975;DHT22;5028;50.974;4.968;2022-10-03T06:38:08;9.10;99.90
9975;DHT22;5028;50.974;4.968;2022-10-03T06:44:25;9.20;99.90
9975;DHT22;5028;50.974;4.968;2022-10-03T06:53:42;9.30;99.90
9975;DHT22;5028;50.974;4.968;2022-10-03T06:56:53;9.30;99.90
9975;DHT22;5028;50.974;4.968;2022-10-03T07:03:23;9.40;99.90
9975;DHT22;5028;50.974;4.968;2022-10-03T07:06:34;9.50;99.90
9975;DHT22;5028;50.974;4.968;2022-10-03T07:12:46;9.50;99.90
9975;DHT22;5028;50.974;4.968;2022-10-03T07:19:19;9.70;99.90
9975;DHT22;5028;50.974;4.968;2022-10-03T07:22:15;9.80;99.90
9975;DHT22;5028;50.974;4.968;2022-10-03T07:28:38;9.80;99.90
9975;DHT22;5028;50.974;4.968;2022-10-03T07:31:31;9.90;99.90
9975;DHT22;5028;50.974;4.968;2022-10-03T07:34:17;10.00;99.90
9975;DHT22;5028;50.974;4.968;2022-10-03T07:40:38;10.10;99.90
9975;DHT22;5028;50.974;4.968;2022-10-03T07:43:37;10.20;99.90
9975;DHT22;5028;50.974;4.968;2022-10-03T07:46:38;10.20;99.90
9975;DHT22;5028;50.974;4.968;2022-10-03T07:52:39;10.40;99.90
9975;DHT22;5028;50.974;4.968;2022-10-03T07:55:26;10.40;99.90
9975;DHT22;5028;50.974;4.968;2022-10-03T08:04:46;10.60;99.90
9975;DHT22;5028;50.974;4.968;2022-10-03T08:07:46;10.80;99.90
9975;DHT22;5028;50.974;4.968;2022-10-03T08:10:37;10.90;99.90
9975;DHT22;5028;50.974;4.968;2022-10-03T08:13:39;10.90;99.90
9975;DHT22;5028;50.974;4.968;2022-10-03T08:16:29;11.00;99.90
9975;DHT22;5028;50.974;4.968;2022-10-03T08:19:21;11.10;99.90
9975;DHT22;5028;50.974;4.968;2022-10-03T08:22:02;11.20;99.90
9975;DHT22;5028;50.974;4.968;2022-10-03T08:25:01;11.30;99.90
9975;DHT22;5028;50.974;4.968;2022-10-03T08:27:50;11.40;99.90
9975;DHT22;5028;50.974;4.968;2022-10-03T08:30:30;11.50;99.90
9975;DHT22;5028;50.974;4.968;2022-10-03T08:33:30;11.60;99.90
9975;DHT22;5028;50.974;4.968;2022-10-03T08:39:13;11.80;99.90
9975;DHT22;5028;50.974;4.968;2022-10-03T08:45:50;12.00;99.90
9975;DHT22;5028;50.974;4.968;2022-10-03T08:51:52;12.20;99.90
9975;DHT22;5028;50.974;4.968;2022-10-03T08:57:44;12.30;99.90
9975;DHT22;5028;50.974;4.968;2022-10-03T09:00:30;12.40;99.90
9975;DHT22;5028;50.974;4.968;2022-10-03T09:10:17;12.70;99.90
9975;DHT22;5028;50.974;4.968;2022-10-03T09:13:32;12.80;99.90
9975;DHT22;5028;50.974;4.968;2022-10-03T09:16:33;12.90;99.90
9975;DHT22;5028;50.974;4.968;2022-10-03T09:19:40;13.00;99.90
9975;DHT22;5028;50.974;4.968;2022-10-03T09:22:35;13.10;99.90
9975;DHT22;5028;50.974;4.968;2022-10-03T09:25:32;13.10;99.90
9975;DHT22;5028;50.974;4.968;2022-10-03T09:31:33;13.30;99.90
9975;DHT22;5028;50.974;4.968;2022-10-03T09:34:36;13.50;99.90
9975;DHT22;5028;50.974;4.968;2022-10-03T09:37:41;13.80;99.90
9975;DHT22;5028;50.974;4.968;2022-10-03T09:59:46;15.60;99.90
9975;DHT22;5028;50.974;4.968;2022-10-03T10:02:55;15.50;99.90
9975;DHT22;5028;50.974;4.968;2022-10-03T10:09:16;15.80;99.90
9975;DHT22;5028;50.974;4.968;2022-10-03T10:12:18;15.80;99.90
9975;DHT22;5028;50.974;4.968;2022-10-03T10:21:34;16.80;99.90
9975;DHT22;5028;50.974;4.968;2022-10-03T10:24:42;17.10;99.90
9975;DHT22;5028;50.974;4.968;2022-10-03T10:27:29;17.10;99.90
9975;DHT22;5028;50.974;4.968;2022-10-03T10:30:36;17.40;99.90
9975;DHT22;5028;50.974;4.968;2022-10-03T10:39:45;17.60;99.90
9975;DHT22;5028;50.974;4.968;2022-10-03T10:43:08;17.70;99.90
9975;DHT22;5028;50.974;4.968;2022-10-03T10:46:16;17.80;99.90
9975;DHT22;5028;50.974;4.968;2022-10-03T11:05:35;17.70;99.90
9975;DHT22;5028;50.974;4.968;2022-10-03T11:08:50;17.90;99.90
9975;DHT22;5028;50.974;4.968;2022-10-03T11:11:57;18.50;99.90
9975;DHT22;5028;50.974;4.968;2022-10-03T11:15:27;18.70;99.90
9975;DHT22;5028;50.974;4.968;2022-10-03T11:21:42;19.40;99.90
9975;DHT22;5028;50.974;4.968;2022-10-03T11:37:17;21.00;99.90
9975;DHT22;5028;50.974;4.968;2022-10-03T11:40:03;20.90;99.90
9975;DHT22;5028;50.974;4.968;2022-10-03T11:42:49;21.10;99.90
9975;DHT22;5028;50.974;4.968;2022-10-03T11:45:29;21.20;99.90
9975;DHT22;5028;50.974;4.968;2022-10-03T11:48:16;21.20;99.90
9975;DHT22;5028;50.974;4.968;2022-10-03T11:51:02;21.20;99.90
9975;DHT22;5028;50.974;4.968;2022-10-03T11:53:44;21.20;99.90
9975;DHT22;5028;50.974;4.968;2022-10-03T11:56:44;21.20;99.90
9975;DHT22;5028;50.974;4.968;2022-10-03T11:59:43;21.60;99.90
9975;DHT22;5028;50.974;4.968;2022-10-03T12:05:47;21.20;99.90
9975;DHT22;5028;50.974;4.968;2022-10-03T12:08:35;21.20;99.90
9975;DHT22;5028;50.974;4.968;2022-10-03T12:11:34;21.40;99.90
9975;DHT22;5028;50.974;4.968;2022-10-03T12:14:20;21.20;99.90
9975;DHT22;5028;50.974;4.968;2022-10-03T12:17:04;20.80;99.90
9975;DHT22;5028;50.974;4.968;2022-10-03T12:19:41;20.70;99.90
9975;DHT22;5028;50.974;4.968;2022-10-03T12:25:21;20.70;99.90
9975;DHT22;5028;50.974;4.968;2022-10-03T12:28:04;20.50;99.90
9975;DHT22;5028;50.974;4.968;2022-10-03T12:30:43;20.20;99.90
9975;DHT22;5028;50.974;4.968;2022-10-03T12:33:30;19.90;99.90
9975;DHT22;5028;50.974;4.968;2022-10-03T12:36:09;19.60;99.90
9975;DHT22;5028;50.974;4.968;2022-10-03T12:38:58;19.20;99.90
9975;DHT22;5028;50.974;4.968;2022-10-03T12:41:55;19.00;99.90
9975;DHT22;5028;50.974;4.968;2022-10-03T12:44:46;19.00;99.90
9975;DHT22;5028;50.974;4.968;2022-10-03T12:47:26;19.10;99.90
9975;DHT22;5028;50.974;4.968;2022-10-03T12:50:34;19.00;99.90
9975;DHT22;5028;50.974;4.968;2022-10-03T12:53:29;19.10;99.90
9975;DHT22;5028;50.974;4.968;2022-10-03T12:56:12;19.00;99.90
9975;DHT22;5028;50.974;4.968;2022-10-03T12:58:49;19.10;99.90
9975;DHT22;5028;50.974;4.968;2022-10-03T13:01:42;19.10;99.90
9975;DHT22;5028;50.974;4.968;2022-10-03T13:04:20;19.10;99.90
9975;DHT22;5028;50.974;4.968;2022-10-03T13:07:16;19.10;99.90
9975;DHT22;5028;50.974;4.968;2022-10-03T13:10:08;19.00;99.90
9975;DHT22;5028;50.974;4.968;2022-10-03T13:12:48;19.00;99.90
9975;DHT22;5028;50.974;4.968;2022-10-03T13:15:43;19.00;99.90
9975;DHT22;5028;50.974;4.968;2022-10-03T13:18:43;19.00;99.90
9975;DHT22;5028;50.974;4.968;2022-10-03T13:21:17;19.00;99.90
9975;DHT22;5028;50.974;4.968;2022-10-03T13:24:25;19.00;99.90
9975;DHT22;5028;50.974;4.968;2022-10-03T13:27:04;19.00;99.90
9975;DHT22;5028;50.974;4.968;2022-10-03T13:29:43;18.90;99.90
9975;DHT22;5028;50.974;4.968;2022-10-03T13:32:25;19.00;99.90
9975;DHT22;5028;50.974;4.968;2022-10-03T13:41:48;19.10;99.90
9975;DHT22;5028;50.974;4.968;2022-10-03T13:44:35;19.10;99.90
9975;DHT22;5028;50.974;4.968;2022-10-03T13:47:18;19.10;99.90
9975;DHT22;5028;50.974;4.968;2022-10-03T13:49:59;19.10;99.90
9975;DHT22;5028;50.974;4.968;2022-10-03T13:52:36;19.10;99.90
9975;DHT22;5028;50.974;4.968;2022-10-03T13:55:17;19.20;99.90
9975;DHT22;5028;50.974;4.968;2022-10-03T13:58:01;19.20;99.90
9975;DHT22;5028;50.974;4.968;2022-10-03T14:01:01;19.10;99.90
9975;DHT22;5028;50.974;4.968;2022-10-03T14:03:44;19.00;99.90
9975;DHT22;5028;50.974;4.968;2022-10-03T14:06:27;18.90;99.90
9975;DHT22;5028;50.974;4.968;2022-10-03T14:09:27;18.90;99.90
9975;DHT22;5028;50.974;4.968;2022-10-03T14:12:25;18.80;99.90
9975;DHT22;5028;50.974;4.968;2022-10-03T14:15:28;18.70;99.90
9975;DHT22;5028;50.974;4.968;2022-10-03T14:18:16;18.70;99.90
9975;DHT22;5028;50.974;4.968;2022-10-03T14:21:24;18.70;99.90
9975;DHT22;5028;50.974;4.968;2022-10-03T14:24:05;18.70;99.90
9975;DHT22;5028;50.974;4.968;2022-10-03T14:26:44;18.70;99.90
9975;DHT22;5028;50.974;4.968;2022-10-03T14:29:25;18.70;99.90
9975;DHT22;5028;50.974;4.968;2022-10-03T14:31:59;18.70;99.90
9975;DHT22;5028;50.974;4.968;2022-10-03T14:35:03;18.70;99.90
9975;DHT22;5028;50.974;4.968;2022-10-03T14:37:43;18.60;99.90
9975;DHT22;5028;50.974;4.968;2022-10-03T14:40:17;18.60;99.90
9975;DHT22;5028;50.974;4.968;2022-10-03T14:43:12;18.60;99.90
9975;DHT22;5028;50.974;4.968;2022-10-03T14:45:49;18.50;99.90
9975;DHT22;5028;50.974;4.968;2022-10-03T14:48:28;18.40;99.90
9975;DHT22;5028;50.974;4.968;2022-10-03T14:51:06;18.40;99.90
9975;DHT22;5028;50.974;4.968;2022-10-03T14:53:46;18.30;99.90
9975;DHT22;5028;50.974;4.968;2022-10-03T14:56:19;18.30;99.90
9975;DHT22;5028;50.974;4.968;2022-10-03T14:59:02;18.20;99.90
9975;DHT22;5028;50.974;4.968;2022-10-03T15:01:46;18.10;99.90
9975;DHT22;5028;50.974;4.968;2022-10-03T15:04:30;18.00;99.90
9975;DHT22;5028;50.974;4.968;2022-10-03T15:07:00;17.80;99.90
9975;DHT22;5028;50.974;4.968;2022-10-03T15:09:42;17.70;99.90
9975;DHT22;5028;50.974;4.968;2022-10-03T15:12:32;17.70;99.90
9975;DHT22;5028;50.974;4.968;2022-10-03T15:15:12;17.70;99.90
9975;DHT22;5028;50.974;4.968;2022-10-03T15:17:48;17.70;99.90
9975;DHT22;5028;50.974;4.968;2022-10-03T15:20:25;17.60;99.90
9975;DHT22;5028;50.974;4.968;2022-10-03T15:22:58;17.60;99.90
9975;DHT22;5028;50.974;4.968;2022-10-03T15:25:35;17.50;99.90
9975;DHT22;5028;50.974;4.968;2022-10-03T15:28:06;17.50;99.90
9975;DHT22;5028;50.974;4.968;2022-10-03T15:30:45;17.40;99.90
9975;DHT22;5028;50.974;4.968;2022-10-03T15:33:16;17.40;99.90
9975;DHT22;5028;50.974;4.968;2022-10-03T15:35:53;17.30;99.90
9975;DHT22;5028;50.974;4.968;2022-10-03T15:38:33;17.20;99.90
9975;DHT22;5028;50.974;4.968;2022-10-03T15:41:12;17.10;99.90
9975;DHT22;5028;50.974;4.968;2022-10-03T15:43:44;17.10;99.90
9975;DHT22;5028;50.974;4.968;2022-10-03T15:46:32;17.10;99.90
9975;DHT22;5028;50.974;4.968;2022-10-03T15:49:05;17.20;99.90
9975;DHT22;5028;50.974;4.968;2022-10-03T15:51:41;17.30;99.90
9975;DHT22;5028;50.974;4.968;2022-10-03T15:54:15;17.30;99.90
9975;DHT22;5028;50.974;4.968;2022-10-03T15:56:54;17.30;99.90
9975;DHT22;5028;50.974;4.968;2022-10-03T15:59:26;17.20;99.90
9975;DHT22;5028;50.974;4.968;2022-10-03T16:02:11;17.10;99.90
9975;DHT22;5028;50.974;4.968;2022-10-03T16:04:52;17.10;99.90
9975;DHT22;5028;50.974;4.968;2022-10-03T16:07:28;17.00;99.90
9975;DHT22;5028;50.974;4.968;2022-10-03T16:10:16;16.90;99.90
9975;DHT22;5028;50.974;4.968;2022-10-03T16:13:03;16.80;99.90
9975;DHT22;5028;50.974;4.968;2022-10-03T16:15:53;16.70;99.90
9975;DHT22;5028;50.974;4.968;2022-10-03T16:18:52;16.60;99.90
9975;DHT22;5028;50.974;4.968;2022-10-03T16:21:37;16.60;99.90
9975;DHT22;5028;50.974;4.968;2022-10-03T16:24:17;16.60;99.90
9975;DHT22;5028;50.974;4.968;2022-10-03T16:26:55;16.50;99.90
9975;DHT22;5028;50.974;4.968;2022-10-03T16:29:28;16.40;99.90
9975;DHT22;5028;50.974;4.968;2022-10-03T16:32:06;16.30;99.90
9975;DHT22;5028;50.974;4.968;2022-10-03T16:34:41;16.20;99.90
9975;DHT22;5028;50.974;4.968;2022-10-03T16:37:20;16.20;99.90
9975;DHT22;5028;50.974;4.968;2022-10-03T16:39:57;16.10;99.90
9975;DHT22;5028;50.974;4.968;2022-10-03T16:42:38;16.10;99.90
9975;DHT22;5028;50.974;4.968;2022-10-03T16:45:19;16.00;99.90
9975;DHT22;5028;50.974;4.968;2022-10-03T16:47:58;16.00;99.90
9975;DHT22;5028;50.974;4.968;2022-10-03T16:50:50;15.90;99.90
9975;DHT22;5028;50.974;4.968;2022-10-03T16:53:25;15.90;99.90
9975;DHT22;5028;50.974;4.968;2022-10-03T16:56:01;15.80;99.90
9975;DHT22;5028;50.974;4.968;2022-10-03T16:58:42;15.80;99.90
9975;DHT22;5028;50.974;4.968;2022-10-03T17:01:14;15.70;99.90
9975;DHT22;5028;50.974;4.968;2022-10-03T17:03:57;15.60;99.90
9975;DHT22;5028;50.974;4.968;2022-10-03T17:06:31;15.60;99.90
9975;DHT22;5028;50.974;4.968;2022-10-03T17:09:30;15.50;99.90
9975;DHT22;5028;50.974;4.968;2022-10-03T17:12:11;15.50;99.90
9975;DHT22;5028;50.974;4.968;2022-10-03T17:14:50;15.40;99.90
9975;DHT22;5028;50.974;4.968;2022-10-03T17:17:26;15.40;99.90
9975;DHT22;5028;50.974;4.968;2022-10-03T17:20:06;15.40;99.90
9975;DHT22;5028;50.974;4.968;2022-10-03T17:22:40;15.30;99.90
9975;DHT22;5028;50.974;4.968;2022-10-03T17:25:35;15.30;99.90
9975;DHT22;5028;50.974;4.968;2022-10-03T17:28:07;15.20;99.90
9975;DHT22;5028;50.974;4.968;2022-10-03T17:30:48;15.10;99.90
9975;DHT22;5028;50.974;4.968;2022-10-03T17:33:22;15.10;99.90
9975;DHT22;5028;50.974;4.968;2022-10-03T17:36:17;15.10;99.90
9975;DHT22;5028;50.974;4.968;2022-10-03T17:38:54;15.10;99.90
9975;DHT22;5028;50.974;4.968;2022-10-03T17:41:36;15.10;99.90
9975;DHT22;5028;50.974;4.968;2022-10-03T17:44:18;15.10;99.90
9975;DHT22;5028;50.974;4.968;2022-10-03T17:47:01;15.00;99.90
9975;DHT22;5028;50.974;4.968;2022-10-03T17:49:43;15.00;99.90
9975;DHT22;5028;50.974;4.968;2022-10-03T17:52:20;14.90;99.90
9975;DHT22;5028;50.974;4.968;2022-10-03T17:54:54;14.90;99.90
9975;DHT22;5028;50.974;4.968;2022-10-03T17:57:32;14.90;99.90
9975;DHT22;5028;50.974;4.968;2022-10-03T18:00:05;14.90;99.90
9975;DHT22;5028;50.974;4.968;2022-10-03T18:02:45;14.80;99.90
9975;DHT22;5028;50.974;4.968;2022-10-03T18:05:21;14.80;99.90
9975;DHT22;5028;50.974;4.968;2022-10-03T18:08:01;14.80;99.90
9975;DHT22;5028;50.974;4.968;2022-10-03T18:10:45;14.70;99.90
9975;DHT22;5028;50.974;4.968;2022-10-03T18:13:27;14.70;99.90
9975;DHT22;5028;50.974;4.968;2022-10-03T18:16:18;14.70;99.90
9975;DHT22;5028;50.974;4.968;2022-10-03T18:19:20;14.70;99.90
9975;DHT22;5028;50.974;4.968;2022-10-03T18:21:58;14.50;99.90
9975;DHT22;5028;50.974;4.968;2022-10-03T18:25:01;14.50;99.90
9975;DHT22;5028;50.974;4.968;2022-10-03T18:28:16;14.40;99.90
9975;DHT22;5028;50.974;4.968;2022-10-03T18:30:57;14.40;99.90
9975;DHT22;5028;50.974;4.968;2022-10-03T18:33:30;14.40;99.90
9975;DHT22;5028;50.974;4.968;2022-10-03T18:36:09;14.40;99.90
9975;DHT22;5028;50.974;4.968;2022-10-03T18:38:43;14.40;99.90
9975;DHT22;5028;50.974;4.968;2022-10-03T18:41:19;14.30;99.90
9975;DHT22;5028;50.974;4.968;2022-10-03T18:43:54;14.30;99.90
9975;DHT22;5028;50.974;4.968;2022-10-03T18:46:35;14.20;99.90
9975;DHT22;5028;50.974;4.968;2022-10-03T18:49:14;14.10;99.90
9975;DHT22;5028;50.974;4.968;2022-10-03T18:52:06;13.90;99.90
9975;DHT22;5028;50.974;4.968;2022-10-03T18:54:46;13.90;99.90
9975;DHT22;5028;50.974;4.968;2022-10-03T18:57:29;13.80;99.90
9975;DHT22;5028;50.974;4.968;2022-10-03T19:00:05;13.80;99.90
9975;DHT22;5028;50.974;4.968;2022-10-03T19:02:43;13.70;99.90
9975;DHT22;5028;50.974;4.968;2022-10-03T19:05:16;13.60;99.90
9975;DHT22;5028;50.974;4.968;2022-10-03T19:08:01;13.60;99.90
9975;DHT22;5028;50.974;4.968;2022-10-03T19:10:38;13.50;99.90
9975;DHT22;5028;50.974;4.968;2022-10-03T19:13:27;13.50;99.90
9975;DHT22;5028;50.974;4.968;2022-10-03T19:16:20;13.50;99.90
9975;DHT22;5028;50.974;4.968;2022-10-03T19:19:05;13.50;99.90
9975;DHT22;5028;50.974;4.968;2022-10-03T19:21:36;13.40;99.90
9975;DHT22;5028;50.974;4.968;2022-10-03T19:24:16;13.30;99.90
9975;DHT22;5028;50.974;4.968;2022-10-03T19:27:10;13.30;99.90
9975;DHT22;5028;50.974;4.968;2022-10-03T19:29:48;13.20;99.90
9975;DHT22;5028;50.974;4.968;2022-10-03T19:32:24;13.20;99.90
9975;DHT22;5028;50.974;4.968;2022-10-03T19:35:04;13.10;99.90
9975;DHT22;5028;50.974;4.968;2022-10-03T19:37:38;13.10;99.90
9975;DHT22;5028;50.974;4.968;2022-10-03T19:43:34;13.10;99.90
9975;DHT22;5028;50.974;4.968;2022-10-03T19:46:15;13.00;99.90
9975;DHT22;5028;50.974;4.968;2022-10-03T19:49:16;13.00;99.90
9975;DHT22;5028;50.974;4.968;2022-10-03T19:51:48;13.00;99.90
9975;DHT22;5028;50.974;4.968;2022-10-03T19:54:30;13.00;99.90
9975;DHT22;5028;50.974;4.968;2022-10-03T19:57:01;12.90;99.90
9975;DHT22;5028;50.974;4.968;2022-10-03T19:59:43;12.90;99.90
9975;DHT22;5028;50.974;4.968;2022-10-03T20:02:23;12.90;99.90
9975;DHT22;5028;50.974;4.968;2022-10-03T20:04:55;12.80;99.90
9975;DHT22;5028;50.974;4.968;2022-10-03T20:07:42;12.80;99.90
9975;DHT22;5028;50.974;4.968;2022-10-03T20:10:46;12.80;99.90
9975;DHT22;5028;50.974;4.968;2022-10-03T20:13:21;12.70;99.90
9975;DHT22;5028;50.974;4.968;2022-10-03T20:15:57;12.70;99.90
9975;DHT22;5028;50.974;4.968;2022-10-03T20:18:29;12.70;99.90
9975;DHT22;5028;50.974;4.968;2022-10-03T20:21:10;12.70;99.90
9975;DHT22;5028;50.974;4.968;2022-10-03T20:23:41;12.70;99.90
9975;DHT22;5028;50.974;4.968;2022-10-03T20:26:21;12.60;99.90
9975;DHT22;5028;50.974;4.968;2022-10-03T20:29:21;12.60;99.90
9975;DHT22;5028;50.974;4.968;2022-10-03T20:31:59;12.60;99.90
9975;DHT22;5028;50.974;4.968;2022-10-03T20:34:29;12.60;99.90
9975;DHT22;5028;50.974;4.968;2022-10-03T20:37:24;12.60;99.90
9975;DHT22;5028;50.974;4.968;2022-10-03T20:40:14;12.60;99.90
9975;DHT22;5028;50.974;4.968;2022-10-03T20:43:33;12.60;99.90
9975;DHT22;5028;50.974;4.968;2022-10-03T20:46:23;12.60;99.90
9975;DHT22;5028;50.974;4.968;2022-10-03T20:49:25;12.60;99.90
9975;DHT22;5028;50.974;4.968;2022-10-03T20:51:58;12.60;99.90
9975;DHT22;5028;50.974;4.968;2022-10-03T20:54:47;12.50;99.90
9975;DHT22;5028;50.974;4.968;2022-10-03T20:57:19;12.60;99.90
9975;DHT22;5028;50.974;4.968;2022-10-03T21:00:03;12.50;99.90
9975;DHT22;5028;50.974;4.968;2022-10-03T21:02:39;12.50;99.90
9975;DHT22;5028;50.974;4.968;2022-10-03T21:05:19;12.50;99.90
9975;DHT22;5028;50.974;4.968;2022-10-03T21:07:54;12.40;99.90
9975;DHT22;5028;50.974;4.968;2022-10-03T21:10:36;12.40;99.90
9975;DHT22;5028;50.974;4.968;2022-10-03T21:13:15;12.30;99.90
9975;DHT22;5028;50.974;4.968;2022-10-03T21:15:54;12.30;99.90
9975;DHT22;5028;50.974;4.968;2022-10-03T21:18:26;12.20;99.90
9975;DHT22;5028;50.974;4.968;2022-10-03T21:21:06;12.10;99.90
9975;DHT22;5028;50.974;4.968;2022-10-03T21:23:43;12.10;99.90
9975;DHT22;5028;50.974;4.968;2022-10-03T21:26:22;12.10;99.90